Time;durP1;ratioP1;P1;durP2;ratioP2;P2;SDS_P1;SDS_P2;PMS_P1;PMS_P2;Temp;Humidity;BMP_temperature;BMP_pressure;BME280_temperature;BME280_humidity;BME280_pressure;Samples;Min_cycle;Max_cycle;Signal;HPM_P1;HPM_P2
2022/05/20 00:01:51;;;;;;;4.60;3.27;;;;;;;;;;5067526;28;20470;-73
2022/05/20 00:04:17;;;;;;;2.90;2.73;;;;;;;;;;5066855;28;20488;-74
2022/05/20 00:06:43;;;;;;;3.13;2.80;;;;;;;;;;5068841;28;20442;-74
2022/05/20 00:09:09;;;;;;;2.97;2.83;;;;;;;;;;5068061;28;20421;-73
2022/05/20 00:11:35;;;;;;;3.70;3.40;;;;;;;;;;5068500;28;20936;-73
2022/05/20 00:14:02;;;;;;;6.73;2.83;;;;;;;;;;5066692;28;20512;-73
2022/05/20 00:16:29;;;;;;;3.37;3.00;;;;;;;;;;5067694;28;20468;-73
2022/05/20 00:18:55;;;;;;;3.10;2.90;;;;;;;;;;5067826;28;20440;-73
2022/05/20 00:21:21;;;;;;;5.30;2.87;;;;;;;;;;5064423;28;20434;-74
2022/05/20 00:23:47;;;;;;;2.70;2.50;;;;;;;;;;5067502;28;20425;-73
2022/05/20 00:26:13;;;;;;;3.33;3.13;;;;;;;;;;5068656;28;20444;-73
2022/05/20 00:28:39;;;;;;;8.80;3.53;;;;;;;;;;5064886;28;20457;-73
2022/05/20 00:31:06;;;;;;;2.97;2.87;;;;;;;;;;5067419;28;20449;-73
2022/05/20 00:33:33;;;;;;;2.50;2.30;;;;;;;;;;5067583;28;20516;-73
2022/05/20 00:35:59;;;;;;;3.23;3.00;;;;;;;;;;5067382;28;20937;-73
2022/05/20 00:38:26;;;;;;;3.00;2.80;;;;;;;;;;5067317;28;20430;-74
2022/05/20 00:40:53;;;;;;;3.37;2.87;;;;;;;;;;5066098;28;21129;-73
2022/05/20 00:43:27;;;;;;;3.50;3.30;;;;;;;;;;5066106;28;20475;-73
2022/05/20 00:46:04;;;;;;;4.33;3.07;;;;;;;;;;5067435;28;20437;-73
2022/05/20 00:48:30;;;;;;;12.30;3.00;;;;;;;;;;5066071;28;20467;-73
2022/05/20 00:51:00;;;;;;;8.33;3.10;;;;;;;;;;5063049;28;20521;-74
2022/05/20 00:53:28;;;;;;;5.03;2.90;;;;;;;;;;5066091;28;20433;-74
2022/05/20 00:55:54;;;;;;;7.13;3.10;;;;;;;;;;5067855;28;20799;-74
2022/05/20 00:58:21;;;;;;;3.47;3.27;;;;;;;;;;5065006;28;20496;-73
2022/05/20 01:00:52;;;;;;;5.77;3.10;;;;;;;;;;5066847;28;20434;-73
2022/05/20 01:03:19;;;;;;;3.43;3.27;;;;;;;;;;5065369;28;20429;-74
2022/05/20 01:05:47;;;;;;;3.23;3.10;;;;;;;;;;5066926;28;20429;-73
2022/05/20 01:08:15;;;;;;;3.40;3.30;;;;;;;;;;5066797;28;20788;-73
2022/05/20 01:10:41;;;;;;;3.57;3.37;;;;;;;;;;5067235;28;20498;-74
2022/05/20 01:13:08;;;;;;;4.43;3.23;;;;;;;;;;5063873;28;20513;-73
2022/05/20 01:15:34;;;;;;;5.83;3.70;;;;;;;;;;5067230;28;20433;-73
2022/05/20 01:18:00;;;;;;;4.00;3.60;;;;;;;;;;5067491;28;20523;-73
2022/05/20 01:20:28;;;;;;;3.83;2.77;;;;;;;;;;5064370;28;20773;-73
2022/05/20 01:22:54;;;;;;;6.73;3.50;;;;;;;;;;5068460;28;20465;-73
2022/05/20 01:25:20;;;;;;;4.27;3.67;;;;;;;;;;5066128;28;20938;-74
2022/05/20 01:27:46;;;;;;;3.60;3.30;;;;;;;;;;5068220;28;20190;-74
2022/05/20 01:30:14;;;;;;;5.00;2.80;;;;;;;;;;5067925;28;20856;-74
2022/05/20 01:32:40;;;;;;;4.40;4.03;;;;;;;;;;5063145;28;20465;-74
2022/05/20 01:35:08;;;;;;;10.00;3.20;;;;;;;;;;5063691;28;20537;-73
2022/05/20 01:37:34;;;;;;;5.33;3.30;;;;;;;;;;5065652;28;20480;-74
2022/05/20 01:40:00;;;;;;;3.70;3.43;;;;;;;;;;5067986;28;20424;-73
2022/05/20 01:42:31;;;;;;;21.23;3.67;;;;;;;;;;5067740;28;20430;-74
2022/05/20 01:45:01;;;;;;;3.57;3.37;;;;;;;;;;5063679;28;20426;-73
2022/05/20 01:47:30;;;;;;;5.40;3.53;;;;;;;;;;5066635;28;20780;-73
2022/05/20 01:50:06;;;;;;;6.33;3.13;;;;;;;;;;5066706;28;20523;-73
2022/05/20 01:52:35;;;;;;;6.27;3.97;;;;;;;;;;5065614;28;21039;-73
2022/05/20 01:55:18;;;;;;;4.33;3.43;;;;;;;;;;5062948;28;20519;-73
2022/05/20 01:57:54;;;;;;;4.97;4.40;;;;;;;;;;5049868;28;20623;-73
2022/05/20 02:00:25;;;;;;;4.57;4.27;;;;;;;;;;5065245;28;20430;-73
2022/05/20 02:02:57;;;;;;;3.70;3.50;;;;;;;;;;5065045;28;20437;-73
2022/05/20 02:05:30;;;;;;;3.53;3.43;;;;;;;;;;5049250;28;20440;-73
2022/05/20 02:08:04;;;;;;;3.23;3.13;;;;;;;;;;5068496;28;20441;-74
2022/05/20 02:10:34;;;;;;;3.40;3.30;;;;;;;;;;5066427;28;20486;-73
2022/05/20 02:13:02;;;;;;;11.83;4.03;;;;;;;;;;5067532;28;20442;-73
2022/05/20 02:15:46;;;;;;;4.53;4.10;;;;;;;;;;5068072;28;20433;-73
2022/05/20 02:18:14;;;;;;;3.73;3.43;;;;;;;;;;5070646;28;20980;-73
2022/05/20 02:20:45;;;;;;;3.67;3.47;;;;;;;;;;5070719;28;20436;-74
2022/05/20 02:23:19;;;;;;;5.30;4.80;;;;;;;;;;5067242;28;20547;-73
2022/05/20 02:25:48;;;;;;;7.10;3.80;;;;;;;;;;5070286;28;20437;-73
2022/05/20 02:28:18;;;;;;;3.70;3.47;;;;;;;;;;5071620;28;20421;-74
2022/05/20 02:30:45;;;;;;;7.43;4.20;;;;;;;;;;5066960;28;20964;-73
2022/05/20 02:33:15;;;;;;;4.70;3.30;;;;;;;;;;5069475;28;20421;-74
2022/05/20 02:35:41;;;;;;;3.93;3.63;;;;;;;;;;5068826;28;20433;-73
2022/05/20 02:38:12;;;;;;;4.13;3.47;;;;;;;;;;5068768;28;20486;-73
2022/05/20 02:40:39;;;;;;;4.13;4.03;;;;;;;;;;5068029;28;20439;-73
2022/05/20 02:43:05;;;;;;;3.57;3.43;;;;;;;;;;5071589;28;20490;-72
2022/05/20 02:45:31;;;;;;;4.33;4.03;;;;;;;;;;5069467;28;20422;-73
2022/05/20 02:47:57;;;;;;;5.73;3.73;;;;;;;;;;5068575;28;20494;-73
2022/05/20 02:50:23;;;;;;;7.50;3.90;;;;;;;;;;5069416;28;21521;-73
2022/05/20 02:52:49;;;;;;;4.10;3.67;;;;;;;;;;5070712;28;20437;-73
2022/05/20 02:55:15;;;;;;;4.57;3.67;;;;;;;;;;5066627;28;20433;-73
2022/05/20 02:57:42;;;;;;;7.97;3.97;;;;;;;;;;5068495;28;20922;-74
2022/05/20 03:05:38;;;;;;;4.13;3.67;;;;;;;;;;5067654;28;20417;-73
2022/05/20 03:08:04;;;;;;;4.10;3.83;;;;;;;;;;5068100;28;20433;-73
2022/05/20 03:10:30;;;;;;;8.10;4.20;;;;;;;;;;5069507;28;20937;-73
2022/05/20 03:12:59;;;;;;;4.33;4.00;;;;;;;;;;5069305;28;20437;-74
2022/05/20 03:15:25;;;;;;;9.10;4.10;;;;;;;;;;5068593;28;20445;-73
2022/05/20 03:17:51;;;;;;;3.47;3.27;;;;;;;;;;5069518;28;20481;-73
2022/05/20 03:20:17;;;;;;;3.80;3.50;;;;;;;;;;5069359;28;20425;-73
2022/05/20 03:22:43;;;;;;;3.90;3.80;;;;;;;;;;5067705;28;20437;-73
2022/05/20 03:25:10;;;;;;;5.90;4.10;;;;;;;;;;5068350;28;20517;-73
2022/05/20 03:27:37;;;;;;;5.73;3.63;;;;;;;;;;5066278;28;20455;-74
2022/05/20 03:30:03;;;;;;;11.20;4.60;;;;;;;;;;5068411;28;20422;-73
2022/05/20 03:32:29;;;;;;;4.60;4.20;;;;;;;;;;5064262;28;20436;-74
2022/05/20 03:34:59;;;;;;;13.13;3.93;;;;;;;;;;5065417;28;20429;-73
2022/05/20 03:37:25;;;;;;;10.53;3.80;;;;;;;;;;5069997;28;20488;-73
2022/05/20 03:39:51;;;;;;;3.93;3.50;;;;;;;;;;5067870;28;20438;-73
2022/05/20 03:42:17;;;;;;;4.00;3.90;;;;;;;;;;5068623;28;20442;-73
2022/05/20 03:44:43;;;;;;;3.47;3.23;;;;;;;;;;5069551;28;20969;-73
2022/05/20 03:47:09;;;;;;;4.30;4.00;;;;;;;;;;5069981;28;20429;-74
2022/05/20 03:49:35;;;;;;;3.63;3.53;;;;;;;;;;5068866;28;20472;-73
2022/05/20 03:52:01;;;;;;;5.20;4.00;;;;;;;;;;5069474;28;20433;-73
2022/05/20 03:54:30;;;;;;;8.60;3.60;;;;;;;;;;5068519;28;20444;-73
2022/05/20 03:56:56;;;;;;;4.20;3.77;;;;;;;;;;5067334;28;20685;-73
2022/05/20 03:59:21;;;;;;;3.90;3.70;;;;;;;;;;5066101;28;20927;-73
2022/05/20 04:01:57;;;;;;;6.40;3.77;;;;;;;;;;5067463;28;20432;-73
2022/05/20 04:04:25;;;;;;;5.67;3.50;;;;;;;;;;5067039;28;20436;-73
2022/05/20 04:06:51;;;;;;;23.60;3.77;;;;;;;;;;5066363;28;20438;-73
2022/05/20 04:09:17;;;;;;;3.57;3.30;;;;;;;;;;5068305;28;20806;-73
2022/05/20 04:11:43;;;;;;;3.27;3.13;;;;;;;;;;5065341;28;20426;-72
2022/05/20 04:14:09;;;;;;;7.43;3.77;;;;;;;;;;5064981;28;20783;-73
2022/05/20 04:16:35;;;;;;;5.60;3.60;;;;;;;;;;5069096;28;20474;-73
2022/05/20 04:19:01;;;;;;;3.90;3.70;;;;;;;;;;5068421;28;20433;-73
2022/05/20 04:21:27;;;;;;;4.20;3.87;;;;;;;;;;5069869;28;20474;-72
2022/05/20 04:23:53;;;;;;;5.43;3.90;;;;;;;;;;5069044;28;20425;-73
2022/05/20 04:26:20;;;;;;;4.47;4.17;;;;;;;;;;5066380;28;20541;-73
2022/05/20 04:28:46;;;;;;;4.70;4.30;;;;;;;;;;5067319;28;20429;-73
2022/05/20 04:31:12;;;;;;;4.97;4.30;;;;;;;;;;5069833;28;20463;-73
2022/05/20 04:33:39;;;;;;;18.03;4.00;;;;;;;;;;5066553;28;20418;-73
2022/05/20 04:36:05;;;;;;;5.53;3.50;;;;;;;;;;5067360;28;20883;-73
2022/05/20 04:38:31;;;;;;;7.17;4.13;;;;;;;;;;5068377;28;20941;-73
2022/05/20 04:49:12;;;;;;;7.87;3.50;;;;;;;;;;5069369;28;20461;-72
2022/05/20 04:51:39;;;;;;;4.70;4.40;;;;;;;;;;5068273;28;20422;-73
2022/05/20 04:56:51;;;;;;;4.37;4.17;;;;;;;;;;5062584;28;20622;-73
2022/05/20 04:59:17;;;;;;;5.10;4.13;;;;;;;;;;5061316;28;20850;-72
2022/05/20 05:01:44;;;;;;;5.80;4.97;;;;;;;;;;5064906;28;20452;-73
2022/05/20 05:04:10;;;;;;;5.70;5.20;;;;;;;;;;5067843;28;20902;-73
2022/05/20 05:06:35;;;;;;;6.77;3.90;;;;;;;;;;5066821;28;20451;-73
2022/05/20 05:09:02;;;;;;;7.03;5.10;;;;;;;;;;5061639;28;20464;-73
2022/05/20 05:11:28;;;;;;;4.40;4.07;;;;;;;;;;5064810;28;20437;-72
2022/05/20 05:13:54;;;;;;;6.13;4.30;;;;;;;;;;5065618;28;20429;-72
2022/05/20 05:16:20;;;;;;;6.70;4.50;;;;;;;;;;5064552;28;20946;-72
2022/05/20 05:18:46;;;;;;;4.33;4.13;;;;;;;;;;5066202;28;21704;-72
2022/05/20 05:21:16;;;;;;;19.23;4.73;;;;;;;;;;5066424;28;20516;-72
2022/05/20 05:23:42;;;;;;;4.73;4.20;;;;;;;;;;5066068;28;20433;-72
2022/05/20 05:26:08;;;;;;;3.77;3.57;;;;;;;;;;5066962;28;20494;-72
2022/05/20 05:28:34;;;;;;;7.87;5.07;;;;;;;;;;5049179;28;20519;-72
2022/05/20 05:31:00;;;;;;;4.93;4.50;;;;;;;;;;5063165;28;20445;-72
2022/05/20 05:33:26;;;;;;;5.20;4.27;;;;;;;;;;5064766;28;20449;-73
2022/05/20 05:35:52;;;;;;;17.53;4.07;;;;;;;;;;5066477;28;20536;-73
2022/05/20 05:38:19;;;;;;;3.70;3.50;;;;;;;;;;5065988;28;20510;-73
2022/05/20 05:40:45;;;;;;;3.63;3.50;;;;;;;;;;5064457;28;20862;-73
2022/05/20 05:43:11;;;;;;;4.70;4.40;;;;;;;;;;5066328;28;20437;-72
2022/05/20 05:45:38;;;;;;;7.03;4.20;;;;;;;;;;5062077;28;20479;-72
2022/05/20 05:48:08;;;;;;;4.77;4.30;;;;;;;;;;5068461;28;20456;-72
2022/05/20 05:50:35;;;;;;;4.93;4.20;;;;;;;;;;5070999;28;20489;-72
2022/05/20 05:53:12;;;;;;;7.13;5.00;;;;;;;;;;5068004;28;20936;-72
2022/05/20 05:55:38;;;;;;;5.80;4.93;;;;;;;;;;5067684;28;20424;-72
2022/05/20 05:58:04;;;;;;;6.43;5.20;;;;;;;;;;5065580;28;20534;-72
2022/05/20 06:00:30;;;;;;;9.03;4.57;;;;;;;;;;5062786;28;20628;-72
2022/05/20 06:02:56;;;;;;;5.00;4.50;;;;;;;;;;5065518;28;20426;-72
2022/05/20 06:05:22;;;;;;;4.90;4.20;;;;;;;;;;5067640;28;20437;-72
2022/05/20 06:07:48;;;;;;;4.07;3.87;;;;;;;;;;5067221;28;20444;-72
2022/05/20 06:10:15;;;;;;;5.37;4.97;;;;;;;;;;5071881;28;20421;-72
2022/05/20 06:12:42;;;;;;;4.17;3.90;;;;;;;;;;5071059;28;20486;-72
2022/05/20 06:15:09;;;;;;;4.33;4.03;;;;;;;;;;5066298;28;20437;-72
2022/05/20 06:17:35;;;;;;;7.80;4.70;;;;;;;;;;5065794;28;20960;-72
2022/05/20 06:20:02;;;;;;;9.30;5.10;;;;;;;;;;5064135;28;20441;-72
2022/05/20 06:22:28;;;;;;;7.40;4.40;;;;;;;;;;5067220;28;20437;-71
2022/05/20 06:24:54;;;;;;;9.37;4.73;;;;;;;;;;5066385;28;20432;-71
2022/05/20 06:27:20;;;;;;;5.50;4.83;;;;;;;;;;5069334;28;20437;-71
2022/05/20 06:29:47;;;;;;;4.27;3.97;;;;;;;;;;5069384;28;20436;-71
2022/05/20 06:32:13;;;;;;;4.43;4.13;;;;;;;;;;5068810;28;20943;-71
2022/05/20 06:40:26;;;;;;;7.50;5.40;;;;;;;;;;4990405;28;20448;-71
2022/05/20 06:42:52;;;;;;;8.00;4.20;;;;;;;;;;5050234;28;20520;-72
2022/05/20 06:45:18;;;;;;;6.60;4.47;;;;;;;;;;5064732;28;20909;-71
2022/05/20 06:47:44;;;;;;;6.73;3.80;;;;;;;;;;5065913;28;20483;-71
2022/05/20 06:50:11;;;;;;;15.83;4.63;;;;;;;;;;5069172;28;20469;-70
2022/05/20 06:52:37;;;;;;;5.20;4.30;;;;;;;;;;5070697;28;20444;-71
2022/05/20 06:55:03;;;;;;;12.83;4.40;;;;;;;;;;5066343;28;20441;-72
2022/05/20 06:57:29;;;;;;;9.03;4.73;;;;;;;;;;5067557;28;20541;-71
2022/05/20 06:59:55;;;;;;;5.33;4.70;;;;;;;;;;5069429;28;20413;-71
2022/05/20 07:02:21;;;;;;;6.90;3.80;;;;;;;;;;5070987;28;20424;-71
2022/05/20 07:04:48;;;;;;;5.87;4.73;;;;;;;;;;5071492;28;20480;-72
2022/05/20 07:07:14;;;;;;;4.80;4.40;;;;;;;;;;5069661;28;20429;-72
2022/05/20 07:09:40;;;;;;;10.23;4.00;;;;;;;;;;5071534;28;20932;-72
2022/05/20 07:12:06;;;;;;;7.60;4.03;;;;;;;;;;5071592;28;20432;-71
2022/05/20 07:14:32;;;;;;;4.27;4.07;;;;;;;;;;5069448;28;20426;-72
2022/05/20 07:16:58;;;;;;;9.33;4.47;;;;;;;;;;5070615;28;20472;-73
2022/05/20 07:19:24;;;;;;;9.60;4.80;;;;;;;;;;5071239;28;20798;-72
2022/05/20 07:21:50;;;;;;;6.53;4.30;;;;;;;;;;5071352;28;20459;-71
2022/05/20 07:24:16;;;;;;;3.60;3.40;;;;;;;;;;5071014;28;20869;-71
2022/05/20 07:26:42;;;;;;;5.37;4.10;;;;;;;;;;5070406;28;20417;-72
2022/05/20 07:29:08;;;;;;;6.33;4.33;;;;;;;;;;5069795;28;20437;-71
2022/05/20 07:31:35;;;;;;;11.30;4.23;;;;;;;;;;5071413;28;20606;-71
2022/05/20 07:34:01;;;;;;;4.57;4.27;;;;;;;;;;5070245;28;20436;-71
2022/05/20 07:36:27;;;;;;;4.10;3.50;;;;;;;;;;5071323;28;20430;-71
2022/05/20 07:38:53;;;;;;;4.30;4.00;;;;;;;;;;5068911;28;20448;-72
2022/05/20 07:41:20;;;;;;;11.43;5.63;;;;;;;;;;5066927;28;20799;-71
2022/05/20 07:43:46;;;;;;;6.40;4.47;;;;;;;;;;5070256;28;20534;-72
2022/05/20 07:46:12;;;;;;;3.90;3.70;;;;;;;;;;5070817;28;20413;-71
2022/05/20 07:48:38;;;;;;;6.93;3.90;;;;;;;;;;5067694;28;20432;-72
2022/05/20 07:51:08;;;;;;;5.90;5.27;;;;;;;;;;5063219;28;20210;-72
2022/05/20 07:53:37;;;;;;;4.60;4.23;;;;;;;;;;5065139;28;20195;-72
2022/05/20 07:56:10;;;;;;;5.50;5.10;;;;;;;;;;5067655;28;20437;-72
2022/05/20 07:58:39;;;;;;;4.43;4.23;;;;;;;;;;5066066;28;20476;-72
2022/05/20 08:01:05;;;;;;;8.33;4.83;;;;;;;;;;5066824;28;20438;-71
2022/05/20 08:06:18;;;;;;;4.10;3.73;;;;;;;;;;5069897;28;20464;-71
2022/05/20 08:08:44;;;;;;;5.83;4.60;;;;;;;;;;5067955;28;20494;-71
2022/05/20 08:11:10;;;;;;;4.70;4.30;;;;;;;;;;5068904;28;20783;-71
2022/05/20 08:13:36;;;;;;;9.70;4.67;;;;;;;;;;5068742;28;20436;-72
2022/05/20 08:16:02;;;;;;;4.77;3.87;;;;;;;;;;5068007;28;20425;-72
2022/05/20 08:18:28;;;;;;;4.33;4.03;;;;;;;;;;5068972;28;20477;-72
2022/05/20 08:20:55;;;;;;;10.73;4.23;;;;;;;;;;5069510;28;20799;-71
2022/05/20 08:23:21;;;;;;;4.53;3.77;;;;;;;;;;5069932;28;20422;-72
2022/05/20 08:25:47;;;;;;;4.23;4.13;;;;;;;;;;5070205;28;20432;-72
2022/05/20 08:28:13;;;;;;;12.73;4.80;;;;;;;;;;5069097;28;20433;-71
2022/05/20 08:30:39;;;;;;;9.70;4.70;;;;;;;;;;5068430;28;20463;-72
2022/05/20 08:33:05;;;;;;;4.63;4.10;;;;;;;;;;5067244;28;20437;-71
2022/05/20 08:35:31;;;;;;;6.10;4.07;;;;;;;;;;5065213;28;20441;-72
2022/05/20 08:37:57;;;;;;;13.20;4.23;;;;;;;;;;5070061;28;21008;-73
2022/05/20 08:40:23;;;;;;;3.03;2.93;;;;;;;;;;5069670;28;20434;-72
2022/05/20 08:42:50;;;;;;;4.83;3.77;;;;;;;;;;5068983;28;20191;-72
2022/05/20 08:45:18;;;;;;;5.27;3.50;;;;;;;;;;5066256;28;20199;-72
2022/05/20 08:47:46;;;;;;;12.87;5.70;;;;;;;;;;5068083;28;20447;-73
2022/05/20 08:50:20;;;;;;;19.93;4.00;;;;;;;;;;5069598;28;20525;-72
2022/05/20 08:52:47;;;;;;;4.93;4.13;;;;;;;;;;5068857;28;20444;-72
2022/05/20 08:55:13;;;;;;;3.27;2.77;;;;;;;;;;5069445;28;20937;-73
2022/05/20 08:57:40;;;;;;;27.37;4.07;;;;;;;;;;5065989;28;20508;-72
2022/05/20 09:00:12;;;;;;;8.53;3.67;;;;;;;;;;5065071;28;20445;-72
2022/05/20 09:02:39;;;;;;;4.20;3.20;;;;;;;;;;5066983;28;20417;-72
2022/05/20 09:05:14;;;;;;;3.80;3.60;;;;;;;;;;5068940;28;20487;-72
2022/05/20 09:08:00;;;;;;;7.20;4.07;;;;;;;;;;5068018;28;20437;-74
2022/05/20 09:10:30;;;;;;;5.10;3.00;;;;;;;;;;5067859;28;20492;-71
2022/05/20 09:16:12;;;;;;;6.67;3.40;;;;;;;;;;5061676;28;20786;-72
2022/05/20 09:18:39;;;;;;;3.23;2.80;;;;;;;;;;5067529;28;20484;-72
2022/05/20 09:21:06;;;;;;;3.27;3.07;;;;;;;;;;5068118;28;20413;-72
2022/05/20 09:23:33;;;;;;;4.93;3.10;;;;;;;;;;5068054;28;20421;-71
2022/05/20 09:26:12;;;;;;;9.73;3.03;;;;;;;;;;5069193;28;20428;-72
2022/05/20 09:28:38;;;;;;;3.13;2.50;;;;;;;;;;5067136;28;20440;-72
2022/05/20 09:31:07;;;;;;;4.43;3.03;;;;;;;;;;5068820;28;20441;-72
2022/05/20 09:33:36;;;;;;;3.33;2.87;;;;;;;;;;5067804;28;20502;-72
2022/05/20 09:36:03;;;;;;;9.67;3.20;;;;;;;;;;5068530;28;20433;-72
2022/05/20 09:38:29;;;;;;;4.63;2.97;;;;;;;;;;5067362;28;20491;-72
2022/05/20 09:40:55;;;;;;;6.60;3.30;;;;;;;;;;5067196;28;20437;-72
2022/05/20 09:43:23;;;;;;;13.80;4.37;;;;;;;;;;5067890;28;20441;-71
2022/05/20 09:45:50;;;;;;;12.00;3.10;;;;;;;;;;5069149;28;20998;-72
2022/05/20 09:48:20;;;;;;;6.20;2.30;;;;;;;;;;5067231;28;20438;-72
2022/05/20 09:50:57;;;;;;;6.83;3.30;;;;;;;;;;5065198;28;20484;-73
2022/05/20 09:53:39;;;;;;;7.90;2.93;;;;;;;;;;5068887;28;20428;-73
2022/05/20 09:56:22;;;;;;;6.00;3.10;;;;;;;;;;5067968;28;20421;-73
2022/05/20 09:59:07;;;;;;;3.60;2.60;;;;;;;;;;5068719;28;20543;-73
2022/05/20 10:01:33;;;;;;;3.73;2.03;;;;;;;;;;5050404;28;20840;-71
2022/05/20 10:04:02;;;;;;;11.53;2.40;;;;;;;;;;5066620;28;20429;-72
2022/05/20 10:06:38;;;;;;;4.00;2.27;;;;;;;;;;5068923;28;20432;-72
2022/05/20 10:09:09;;;;;;;4.87;2.40;;;;;;;;;;5065212;28;20934;-72
2022/05/20 10:11:44;;;;;;;2.27;2.07;;;;;;;;;;5068237;28;20444;-73
2022/05/20 10:14:24;;;;;;;2.13;2.13;;;;;;;;;;5064902;28;20528;-72
2022/05/20 10:17:09;;;;;;;4.60;2.00;;;;;;;;;;5068951;28;20464;-72
2022/05/20 10:19:52;;;;;;;3.53;2.10;;;;;;;;;;5067514;28;20932;-71
2022/05/20 10:22:41;;;;;;;5.80;3.00;;;;;;;;;;5069073;28;20782;-72
2022/05/20 10:25:17;;;;;;;4.97;2.23;;;;;;;;;;5068614;28;20475;-72
2022/05/20 10:27:46;;;;;;;3.50;2.13;;;;;;;;;;5065873;28;20809;-72
2022/05/20 10:33:06;;;;;;;11.33;2.43;;;;;;;;;;5068957;28;20425;-73
2022/05/20 10:35:50;;;;;;;6.00;2.60;;;;;;;;;;5069816;28;20936;-72
2022/05/20 10:38:16;;;;;;;4.83;2.20;;;;;;;;;;5071521;28;20537;-73
2022/05/20 10:40:42;;;;;;;8.70;2.67;;;;;;;;;;5071674;28;20433;-71
2022/05/20 10:43:20;;;;;;;1.87;1.77;;;;;;;;;;5071849;28;20187;-72
2022/05/20 10:48:34;;;;;;;3.80;2.10;;;;;;;;;;5069421;28;20456;-73
2022/05/20 10:51:00;;;;;;;3.17;2.97;;;;;;;;;;5069915;28;20964;-72
2022/05/20 10:53:34;;;;;;;2.07;1.97;;;;;;;;;;5069736;28;20425;-73
2022/05/20 10:56:06;;;;;;;4.33;2.20;;;;;;;;;;5070023;28;20433;-73
2022/05/20 10:58:32;;;;;;;9.60;2.10;;;;;;;;;;5052648;28;20567;-72
2022/05/20 11:00:59;;;;;;;2.43;2.30;;;;;;;;;;5070249;28;21852;-73
2022/05/20 11:03:41;;;;;;;1.97;1.90;;;;;;;;;;5071176;28;20270;-72
2022/05/20 11:06:13;;;;;;;2.83;2.23;;;;;;;;;;5070902;28;20421;-72
2022/05/20 11:08:51;;;;;;;2.20;2.03;;;;;;;;;;5070515;28;20747;-72
2022/05/20 11:11:17;;;;;;;2.37;2.10;;;;;;;;;;5071331;28;20429;-72
2022/05/20 11:14:03;;;;;;;2.20;2.10;;;;;;;;;;5070882;28;20429;-73
2022/05/20 11:16:48;;;;;;;4.97;1.90;;;;;;;;;;5044757;28;20437;-71
2022/05/20 11:19:33;;;;;;;2.13;2.03;;;;;;;;;;5069463;28;20437;-72
2022/05/20 11:22:12;;;;;;;3.33;2.40;;;;;;;;;;5069650;28;20452;-72
2022/05/20 11:25:05;;;;;;;12.00;2.37;;;;;;;;;;5070172;28;20440;-72
2022/05/20 11:27:34;;;;;;;2.63;2.43;;;;;;;;;;5068125;28;20957;-74
2022/05/20 11:30:04;;;;;;;5.90;2.13;;;;;;;;;;5070332;28;20862;-72
2022/05/20 11:32:49;;;;;;;4.43;2.03;;;;;;;;;;5071360;28;20417;-72
2022/05/20 11:35:15;;;;;;;2.83;2.70;;;;;;;;;;5068577;28;20961;-72
2022/05/20 11:37:41;;;;;;;5.07;3.17;;;;;;;;;;5067726;28;20503;-72
2022/05/20 11:40:08;;;;;;;2.50;2.30;;;;;;;;;;5071183;28;20244;-72
2022/05/20 11:42:43;;;;;;;2.57;2.40;;;;;;;;;;5070220;28;20437;-71
2022/05/20 11:45:23;;;;;;;2.70;2.50;;;;;;;;;;5068487;28;20429;-73
2022/05/20 11:47:52;;;;;;;5.70;2.60;;;;;;;;;;5068289;28;20977;-73
2022/05/20 11:50:35;;;;;;;6.33;2.50;;;;;;;;;;5070344;28;20497;-72
2022/05/20 11:53:08;;;;;;;3.27;3.10;;;;;;;;;;5067521;28;20874;-72
2022/05/20 11:55:36;;;;;;;3.83;3.53;;;;;;;;;;5069040;28;20429;-72
2022/05/20 11:58:07;;;;;;;8.97;3.00;;;;;;;;;;5064604;28;20491;-73
2022/05/20 12:00:39;;;;;;;2.80;2.57;;;;;;;;;;5069885;28;20464;-73
2022/05/20 12:03:07;;;;;;;4.20;2.60;;;;;;;;;;5069870;28;20429;-73
2022/05/20 12:05:37;;;;;;;12.80;2.60;;;;;;;;;;5068347;28;20468;-71
2022/05/20 12:08:03;;;;;;;5.33;2.50;;;;;;;;;;5061436;28;20532;-74
2022/05/20 12:10:32;;;;;;;2.87;2.67;;;;;;;;;;5059988;28;20484;-73
2022/05/20 12:13:25;;;;;;;3.70;2.93;;;;;;;;;;5064962;28;20457;-73
2022/05/20 12:16:10;;;;;;;2.67;2.33;;;;;;;;;;5064293;28;20422;-73
2022/05/20 12:24:26;;;;;;;2.87;2.33;;;;;;;;;;5069567;28;20405;-74
2022/05/20 12:26:54;;;;;;;2.10;2.10;;;;;;;;;;5065775;28;20507;-71
2022/05/20 12:29:35;;;;;;;6.90;3.53;;;;;;;;;;5064938;28;20429;-73
2022/05/20 12:32:21;;;;;;;3.77;3.47;;;;;;;;;;5069112;28;20436;-73
2022/05/20 12:35:05;;;;;;;2.57;2.57;;;;;;;;;;5067520;28;20488;-73
2022/05/20 12:37:43;;;;;;;2.73;2.53;;;;;;;;;;5064676;28;20988;-73
2022/05/20 12:40:27;;;;;;;10.57;2.87;;;;;;;;;;5068807;28;20409;-73
2022/05/20 12:42:58;;;;;;;3.13;2.53;;;;;;;;;;5069727;28;20425;-72
2022/05/20 12:45:26;;;;;;;2.87;2.60;;;;;;;;;;5065330;28;20433;-73
2022/05/20 12:47:52;;;;;;;10.07;2.60;;;;;;;;;;5068770;28;20410;-72
2022/05/20 12:50:18;;;;;;;6.40;2.83;;;;;;;;;;5065612;28;20592;-73
2022/05/20 12:52:51;;;;;;;7.07;2.20;;;;;;;;;;5068884;28;21000;-73
2022/05/20 12:55:17;;;;;;;3.80;2.30;;;;;;;;;;5063614;28;20945;-73
2022/05/20 12:57:49;;;;;;;2.50;2.50;;;;;;;;;;5065120;28;20521;-72
2022/05/20 13:00:16;;;;;;;6.87;2.53;;;;;;;;;;5063425;28;20437;-74
2022/05/20 13:02:44;;;;;;;2.73;2.10;;;;;;;;;;5067088;28;20429;-72
2022/05/20 13:05:13;;;;;;;2.90;2.67;;;;;;;;;;5065505;28;20422;-73
2022/05/20 13:07:39;;;;;;;4.47;2.33;;;;;;;;;;5069073;28;20429;-73
2022/05/20 13:10:22;;;;;;;13.43;2.97;;;;;;;;;;5066203;28;20437;-72
2022/05/20 13:12:49;;;;;;;2.77;2.60;;;;;;;;;;5068680;28;20487;-73
2022/05/20 13:15:19;;;;;;;2.40;2.20;;;;;;;;;;5065829;28;20494;-74
2022/05/20 13:17:50;;;;;;;2.57;2.10;;;;;;;;;;5067509;28;20469;-72
2022/05/20 13:20:16;;;;;;;7.00;3.40;;;;;;;;;;5066905;28;20452;-73
2022/05/20 13:22:49;;;;;;;4.80;3.33;;;;;;;;;;5067594;28;20417;-73
2022/05/20 13:25:17;;;;;;;6.40;2.80;;;;;;;;;;5067328;28;20433;-72
2022/05/20 13:27:47;;;;;;;4.43;2.93;;;;;;;;;;5067143;28;20421;-72
2022/05/20 13:30:34;;;;;;;8.40;2.97;;;;;;;;;;5066804;28;20433;-72
2022/05/20 13:33:01;;;;;;;12.47;3.03;;;;;;;;;;5067465;28;20509;-72
2022/05/20 13:35:27;;;;;;;4.80;3.37;;;;;;;;;;5067219;28;20433;-71
2022/05/20 13:37:55;;;;;;;2.40;2.30;;;;;;;;;;5068961;28;20634;-74
2022/05/20 13:40:41;;;;;;;3.73;2.40;;;;;;;;;;5064762;28;20803;-70
2022/05/20 13:43:10;;;;;;;9.63;2.60;;;;;;;;;;5067479;28;20790;-72
2022/05/20 13:51:11;;;;;;;3.50;2.67;;;;;;;;;;5067545;28;20429;-74
2022/05/20 13:53:42;;;;;;;6.90;3.27;;;;;;;;;;5068191;28;20440;-72
2022/05/20 13:56:11;;;;;;;10.30;3.60;;;;;;;;;;5068330;28;20433;-71
2022/05/20 13:58:40;;;;;;;2.77;2.67;;;;;;;;;;5064931;28;20915;-72
2022/05/20 14:01:10;;;;;;;4.13;3.00;;;;;;;;;;5065438;28;20432;-72
2022/05/20 14:03:40;;;;;;;3.40;3.20;;;;;;;;;;5067727;28;20491;-72
2022/05/20 14:06:16;;;;;;;8.33;3.10;;;;;;;;;;5069192;28;20664;-72
2022/05/20 14:08:45;;;;;;;7.50;2.63;;;;;;;;;;5070355;28;20432;-73
2022/05/20 14:11:13;;;;;;;9.03;2.60;;;;;;;;;;5070894;28;20425;-72
2022/05/20 14:13:40;;;;;;;7.07;2.30;;;;;;;;;;5070709;28;20437;-72
2022/05/20 14:16:13;;;;;;;3.97;3.23;;;;;;;;;;5070623;28;20520;-72
2022/05/20 14:18:41;;;;;;;5.40;2.30;;;;;;;;;;5071120;28;20485;-73
2022/05/20 14:21:12;;;;;;;4.73;2.53;;;;;;;;;;5072046;28;20550;-72
2022/05/20 14:23:39;;;;;;;2.83;2.10;;;;;;;;;;5070750;28;20434;-72
2022/05/20 14:26:10;;;;;;;5.33;2.50;;;;;;;;;;5071292;28;20440;-72
2022/05/20 14:28:39;;;;;;;5.13;2.70;;;;;;;;;;5065539;28;20555;-72
2022/05/20 14:31:06;;;;;;;6.53;2.50;;;;;;;;;;5057275;28;20810;-72
2022/05/20 14:33:33;;;;;;;3.07;2.80;;;;;;;;;;5067395;28;20430;-73
2022/05/20 14:36:00;;;;;;;5.93;2.33;;;;;;;;;;5068521;28;20428;-72
2022/05/20 14:38:34;;;;;;;2.27;2.13;;;;;;;;;;5069033;28;20510;-71
2022/05/20 14:41:02;;;;;;;2.10;2.00;;;;;;;;;;5071256;28;20433;-71
2022/05/20 14:43:32;;;;;;;7.53;2.60;;;;;;;;;;5068218;28;20492;-71
2022/05/20 14:45:59;;;;;;;9.23;2.97;;;;;;;;;;5069704;28;20426;-72
2022/05/20 14:48:32;;;;;;;13.83;3.30;;;;;;;;;;5070031;28;20437;-71
2022/05/20 14:50:58;;;;;;;4.43;2.23;;;;;;;;;;5072228;28;20424;-72
2022/05/20 14:53:30;;;;;;;5.40;2.00;;;;;;;;;;5071045;28;20517;-72
2022/05/20 14:55:58;;;;;;;3.33;2.43;;;;;;;;;;5065735;28;20433;-72
2022/05/20 14:58:24;;;;;;;13.83;2.83;;;;;;;;;;5068914;28;20519;-71
2022/05/20 15:01:07;;;;;;;6.33;2.83;;;;;;;;;;5067855;28;20426;-72
2022/05/20 15:03:36;;;;;;;4.00;2.27;;;;;;;;;;5064044;28;20191;-72
2022/05/20 15:06:02;;;;;;;5.47;2.97;;;;;;;;;;5069362;28;20418;-72
2022/05/20 15:08:33;;;;;;;4.27;1.60;;;;;;;;;;5071812;28;20424;-72
2022/05/20 15:11:00;;;;;;;4.00;2.30;;;;;;;;;;5070592;28;20921;-72
2022/05/20 15:13:26;;;;;;;3.03;2.10;;;;;;;;;;5071118;28;20429;-72
2022/05/20 15:15:53;;;;;;;2.57;1.97;;;;;;;;;;5070077;28;20456;-72
2022/05/20 15:18:19;;;;;;;9.73;2.10;;;;;;;;;;5070051;28;20484;-72
2022/05/20 15:20:49;;;;;;;3.43;2.13;;;;;;;;;;5069370;28;20468;-72
2022/05/20 15:23:15;;;;;;;2.73;1.70;;;;;;;;;;5069609;28;21043;-72
2022/05/20 15:25:41;;;;;;;10.90;2.60;;;;;;;;;;5070410;28;20429;-72
2022/05/20 15:28:47;;;;;;;4.50;3.77;;;;;;;;;;5070496;28;20967;-72
2022/05/20 15:34:52;;;;;;;10.13;3.00;;;;;;;;;;5070260;28;20925;-72
2022/05/20 15:36:24;;;;;;;3.63;1.80;;;;;;;;;;5071283;28;20396;-72
2022/05/20 15:38:50;;;;;;;3.43;1.87;;;;;;;;;;5069971;28;20473;-72
2022/05/20 15:41:16;;;;;;;7.50;2.20;;;;;;;;;;5071111;28;20825;-72